createdAt,value
2019-04-07T18:02:10.675Z,99878.36
2019-04-07T18:05:15.697Z,99882.03
2019-04-07T18:08:07.783Z,99887.59
2019-04-07T18:10:46.605Z,99898.16
2019-04-07T18:13:41.964Z,99888.45
2019-04-07T18:16:36.679Z,99879.77
2019-04-07T18:19:31.855Z,99880.94
2019-04-07T18:22:28.611Z,99883.88
2019-04-07T18:25:12.239Z,99883.41
2019-04-07T18:28:04.026Z,99883.31
2019-04-07T18:30:43.814Z,99882.83
2019-04-07T18:33:26.988Z,99889.73
2019-04-07T18:36:16.937Z,99880.53
2019-04-07T18:39:08.001Z,99888.30
2019-04-07T18:41:57.229Z,99876.08
2019-04-07T18:44:54.225Z,99882.38
2019-04-07T18:47:35.711Z,99891.27
2019-04-07T18:50:25.280Z,99890.56
2019-04-07T18:53:27.683Z,99882.03
2019-04-07T18:56:15.525Z,99886.08
2019-04-07T18:58:55.813Z,99885.97
2019-04-07T19:02:04.485Z,99885.02
2019-04-07T19:05:08.164Z,99884.08
2019-04-07T19:07:53.963Z,99889.77
2019-04-07T19:11:10.388Z,99892.84
2019-04-07T19:14:20.947Z,99898.84
2019-04-07T19:16:58.807Z,99894.73
2019-04-07T19:19:53.980Z,99894.87
2019-04-07T19:22:41.652Z,99895.92
2019-04-07T19:25:27.025Z,99895.11
2019-04-07T19:28:16.720Z,99898.77
2019-04-07T19:31:19.335Z,99892.14
2019-04-07T19:34:03.892Z,99897.71
2019-04-07T19:36:57.236Z,99895.47
2019-04-07T19:39:45.213Z,99892.96
2019-04-07T19:42:39.232Z,99898.55
2019-04-07T19:45:24.778Z,99899.62
2019-04-07T19:48:14.417Z,99893.06
2019-04-07T19:51:03.101Z,99892.74
2019-04-07T19:53:55.873Z,99892.13
2019-04-07T19:56:51.162Z,99890.11
2019-04-07T19:59:30.176Z,99887.59
2019-04-07T20:02:22.528Z,99891.28
2019-04-07T20:05:32.157Z,99901.13
2019-04-07T20:08:14.240Z,99892.43
2019-04-07T20:11:09.746Z,99883.31
2019-04-07T20:14:02.948Z,99883.17
2019-04-07T20:16:51.369Z,99879.23
2019-04-07T20:19:41.254Z,99882.11
2019-04-07T20:22:37.122Z,99879.73
2019-04-07T20:25:17.496Z,99869.49
2019-04-07T20:27:56.145Z,99873.06
2019-04-07T20:30:51.732Z,99871.89
2019-04-07T20:33:45.708Z,99866.08
2019-04-07T20:36:42.268Z,99854.69
2019-04-07T20:39:43.936Z,99876.90
2019-04-07T20:42:48.461Z,99881.06
2019-04-07T20:45:35.428Z,99874.33
2019-04-07T20:48:31.603Z,99875.98
2019-04-07T20:51:19.326Z,99876.66
2019-04-07T20:54:07.594Z,99881.33
2019-04-07T20:57:11.420Z,99873.13
2019-04-07T21:00:03.663Z,99877.41
2019-04-07T21:03:14.497Z,99874.52
2019-04-07T21:05:42.312Z,99872.88
2019-04-07T21:08:24.055Z,99880.68
2019-04-07T21:11:16.119Z,99876.88
2019-04-07T21:14:01.654Z,99876.67
2019-04-07T21:16:46.448Z,99861.81
2019-04-07T21:19:42.259Z,99861.81
2019-04-07T21:22:45.057Z,99866.91
2019-04-07T21:25:29.860Z,99865.37
2019-04-07T21:28:14.417Z,99869.75
2019-04-07T21:30:58.809Z,99859.19
2019-04-07T21:33:47.636Z,99860.00
2019-04-07T21:36:26.389Z,99845.86
2019-04-07T21:39:08.776Z,99855.60
2019-04-07T21:42:01.783Z,99854.39
2019-04-07T21:45:02.391Z,99851.31
2019-04-07T21:47:44.940Z,99849.17
2019-04-07T21:50:40.011Z,99847.72
2019-04-07T21:53:30.913Z,99851.86
2019-04-07T21:56:20.439Z,99848.70
2019-04-07T21:59:09.632Z,99847.60
2019-04-07T22:02:12.629Z,99849.52
2019-04-07T22:05:04.576Z,99842.61
2019-04-07T22:07:56.952Z,99835.27
2019-04-07T22:10:27.564Z,99840.00
2019-04-07T22:13:01.813Z,99843.48
2019-04-07T22:15:43.005Z,99838.03
2019-04-07T22:18:06.835Z,99843.25
2019-04-07T22:20:36.968Z,99835.21
2019-04-07T22:23:09.578Z,99837.70
2019-04-07T22:25:54.358Z,99839.61
2019-04-07T22:28:28.393Z,99843.03
2019-04-07T22:30:57.994Z,99844.10
2019-04-07T22:33:30.825Z,99843.28
2019-04-07T22:36:01.793Z,99839.73
2019-04-07T22:38:32.385Z,99839.03
2019-04-07T22:41:02.844Z,99838.20
2019-04-07T22:43:33.821Z,99836.78
2019-04-07T22:46:14.744Z,99839.75
2019-04-07T22:48:36.584Z,99834.03
2019-04-07T22:51:12.086Z,99831.53
2019-04-07T22:53:41.286Z,99836.64
2019-04-07T22:56:12.152Z,99828.67
2019-04-07T22:58:44.404Z,99829.63
2019-04-07T23:01:15.041Z,99831.77
2019-04-07T23:03:45.648Z,99831.91
2019-04-07T23:06:16.835Z,99826.80
2019-04-07T23:08:47.480Z,99827.86
2019-04-07T23:11:17.906Z,99820.17
2019-04-07T23:13:49.367Z,99819.09
2019-04-07T23:16:20.658Z,99819.92
2019-04-07T23:18:50.886Z,99812.55
2019-04-07T23:21:24.647Z,99812.33
2019-04-07T23:23:55.614Z,99802.00
2019-04-07T23:26:27.224Z,99805.58
2019-04-07T23:28:58.431Z,99807.21
2019-04-07T23:31:32.058Z,99811.61
2019-04-07T23:34:03.049Z,99802.37
2019-04-07T23:36:36.123Z,99796.91
2019-04-07T23:39:09.858Z,99797.63
2019-04-07T23:41:41.410Z,99796.66
2019-04-07T23:44:12.924Z,99794.77
2019-04-07T23:46:43.613Z,99788.83
2019-04-07T23:49:14.009Z,99784.19
2019-04-07T23:51:44.420Z,99788.34
2019-04-07T23:54:16.400Z,99788.83
2019-04-07T23:56:47.762Z,99783.12
2019-04-07T23:59:18.682Z,99776.70
